Time;durP1;ratioP1;P1;durP2;ratioP2;P2;SDS_P1;SDS_P2;PMS_P1;PMS_P2;Temp;Humidity;BMP_temperature;BMP_pressure;BME280_temperature;BME280_humidity;BME280_pressure;Samples;Min_cycle;Max_cycle;Signal;HPM_P1;HPM_P2
2022/06/17 00:01:25;;;;;;;1.13;0.50;;;14.90;99.90;;;;;;5152448;27;20183;-78
2022/06/17 00:03:56;;;;;;;0.70;0.70;;;15.00;99.90;;;;;;5135508;27;20664;-77
2022/06/17 00:06:32;;;;;;;0.40;0.40;;;15.00;99.90;;;;;;5135775;27;20187;-77
2022/06/17 00:09:07;;;;;;;2.60;0.75;;;15.00;99.90;;;;;;5138905;27;20197;-76
2022/06/17 00:11:39;;;;;;;0.63;0.50;;;15.10;99.90;;;;;;5156552;27;20186;-76
2022/06/17 00:14:14;;;;;;;0.43;0.40;;;15.10;99.90;;;;;;5143616;27;20199;-76
2022/06/17 00:16:45;;;;;;;1.90;0.65;;;15.20;99.90;;;;;;5135955;27;20205;-77
2022/06/17 00:19:18;;;;;;;0.85;0.40;;;15.30;99.90;;;;;;5147351;27;20244;-76
2022/06/17 00:21:52;;;;;;;0.38;0.32;;;15.40;99.90;;;;;;5135416;27;20187;-77
2022/06/17 00:24:26;;;;;;;0.55;0.40;;;15.40;99.90;;;;;;5140861;27;20182;-77
2022/06/17 00:26:58;;;;;;;0.43;0.40;;;15.50;99.90;;;;;;5156204;27;20549;-78
2022/06/17 00:29:30;;;;;;;0.45;0.40;;;15.70;99.90;;;;;;5156078;27;20198;-76
2022/06/17 00:32:01;;;;;;;0.77;0.43;;;15.90;99.90;;;;;;5153707;27;20187;-77
2022/06/17 00:34:31;;;;;;;0.40;0.40;;;16.00;99.90;;;;;;5145285;27;20203;-77
2022/06/17 00:37:06;;;;;;;1.35;0.20;;;16.10;99.90;;;;;;5145849;27;20206;-77
2022/06/17 00:39:38;;;;;;;1.67;0.30;;;16.30;99.90;;;;;;5151112;27;20194;-77
2022/06/17 00:42:13;;;;;;;1.42;0.40;;;16.20;99.90;;;;;;5151527;27;20570;-76
2022/06/17 00:44:51;;;;;;;0.40;0.40;;;16.30;99.90;;;;;;5153877;27;20190;-79
2022/06/17 00:47:37;;;;;;;1.20;0.40;;;16.30;99.90;;;;;;5154424;27;20185;-81
2022/06/17 00:50:15;;;;;;;0.45;0.40;;;16.40;99.90;;;;;;5152802;27;20297;-77
2022/06/17 00:52:58;;;;;;;0.73;0.40;;;16.50;99.90;;;;;;5146858;27;20214;-76
2022/06/17 00:55:34;;;;;;;0.40;0.40;;;16.50;99.90;;;;;;5149913;27;20528;-76
2022/06/17 00:58:13;;;;;;;1.35;0.50;;;16.60;99.90;;;;;;5146675;27;20222;-78
2022/06/17 01:00:44;;;;;;;1.85;0.45;;;16.70;99.90;;;;;;5145984;27;20198;-76
2022/06/17 01:03:22;;;;;;;0.45;0.30;;;16.70;99.90;;;;;;5134608;27;20183;-76
2022/06/17 01:05:56;;;;;;;0.50;0.40;;;16.80;99.90;;;;;;5140990;27;20633;-76
2022/06/17 01:11:21;;;;;;;1.70;0.40;;;16.90;99.90;;;;;;5147476;27;20197;-75
2022/06/17 01:13:54;;;;;;;1.85;0.50;;;17.00;99.90;;;;;;5148148;27;20206;-76
2022/06/17 01:16:29;;;;;;;1.20;0.60;;;17.00;99.90;;;;;;5146200;27;20185;-76
2022/06/17 01:19:05;;;;;;;1.83;1.52;;;17.10;99.90;;;;;;5153215;27;20186;-75
2022/06/17 01:21:42;;;;;;;0.73;0.40;;;17.20;99.90;;;;;;5152358;27;20535;-75
2022/06/17 01:24:15;;;;;;;0.50;0.32;;;17.30;99.90;;;;;;5149576;27;20202;-76
2022/06/17 01:26:45;;;;;;;0.93;0.40;;;17.30;99.90;;;;;;5154045;27;20238;-75
2022/06/17 01:29:16;;;;;;;0.80;0.40;;;17.40;99.90;;;;;;5144803;27;20194;-75
2022/06/17 01:31:52;;;;;;;0.57;0.30;;;17.40;99.90;;;;;;5151401;27;20754;-76
2022/06/17 01:34:23;;;;;;;0.40;0.30;;;17.50;99.90;;;;;;5150689;27;20633;-76
2022/06/17 01:36:54;;;;;;;0.85;0.40;;;17.60;99.90;;;;;;5146938;27;20190;-75
2022/06/17 01:39:27;;;;;;;0.30;0.30;;;17.70;99.90;;;;;;5149783;27;20640;-75
2022/06/17 01:41:58;;;;;;;0.35;0.35;;;17.80;99.90;;;;;;5153124;27;20190;-75
2022/06/17 01:44:33;;;;;;;1.63;0.38;;;17.80;99.90;;;;;;5146115;27;20191;-75
2022/06/17 01:47:06;;;;;;;0.50;0.40;;;17.90;99.90;;;;;;5148225;27;20244;-75
2022/06/17 01:49:41;;;;;;;0.77;0.30;;;18.00;99.90;;;;;;5134123;28;20186;-75
2022/06/17 01:52:15;;;;;;;1.08;0.30;;;18.10;99.90;;;;;;5142517;27;20186;-75
2022/06/17 01:54:53;;;;;;;2.58;0.45;;;18.10;99.90;;;;;;5141008;27;20559;-76
2022/06/17 01:57:28;;;;;;;0.88;0.40;;;18.20;99.90;;;;;;5151691;27;20550;-75
2022/06/17 02:00:01;;;;;;;2.85;0.30;;;18.30;99.90;;;;;;5150437;27;20232;-75
2022/06/17 02:02:34;;;;;;;0.70;0.25;;;18.30;99.90;;;;;;5149656;27;20201;-75
2022/06/17 02:05:09;;;;;;;0.35;0.22;;;18.30;99.90;;;;;;5147738;27;20194;-75
2022/06/17 02:07:46;;;;;;;0.88;0.30;;;18.40;99.90;;;;;;5151212;27;20848;-75
2022/06/17 02:10:18;;;;;;;0.38;0.20;;;18.40;99.90;;;;;;5152802;27;20190;-76
2022/06/17 02:12:49;;;;;;;0.43;0.30;;;18.40;99.90;;;;;;5146231;27;20202;-75
2022/06/17 02:15:20;;;;;;;1.10;0.30;;;18.40;99.90;;;;;;5145415;27;20186;-75
2022/06/17 02:17:54;;;;;;;0.50;0.38;;;18.50;99.90;;;;;;5152644;27;20798;-76
2022/06/17 02:20:27;;;;;;;0.20;0.20;;;18.50;99.90;;;;;;5153910;27;20702;-76
2022/06/17 02:22:59;;;;;;;0.30;0.30;;;18.50;99.90;;;;;;5153153;27;20198;-76
2022/06/17 02:25:37;;;;;;;0.20;0.20;;;18.50;99.90;;;;;;5144935;27;20195;-75
2022/06/17 02:28:09;;;;;;;0.22;0.20;;;18.60;99.90;;;;;;5148502;27;20190;-77
2022/06/17 02:30:43;;;;;;;0.65;0.30;;;18.70;99.90;;;;;;5155080;27;20283;-75
2022/06/17 02:33:15;;;;;;;0.20;0.20;;;18.80;99.90;;;;;;5153534;27;20205;-75
2022/06/17 02:35:49;;;;;;;0.28;0.28;;;18.90;99.90;;;;;;5139663;27;20660;-76
2022/06/17 02:38:22;;;;;;;1.63;0.35;;;19.00;99.90;;;;;;5152682;27;20187;-75
2022/06/17 02:48:23;;;;;;;1.58;0.50;;;19.10;99.90;;;;;;5099164;27;20217;-76
2022/06/17 02:51:21;;;;;;;1.65;0.40;;;19.10;99.90;;;;;;5110966;27;20204;-75
2022/06/17 02:58:32;;;;;;;1.27;0.38;;;19.10;99.90;;;;;;5014275;28;20233;-76
2022/06/17 03:08:21;;;;;;;0.40;0.40;;;18.80;99.90;;;;;;5042121;28;20194;-76
2022/06/17 03:11:40;;;;;;;0.30;0.30;;;18.50;99.90;;;;;;5032964;28;20193;-76
2022/06/17 03:15:27;;;;;;;0.30;0.30;;;18.30;99.90;;;;;;5024294;28;20308;-77
2022/06/17 03:25:16;;;;;;;0.40;0.40;;;18.00;99.90;;;;;;5012048;28;20253;-76
2022/06/17 03:28:42;;;;;;;0.90;0.55;;;18.00;99.90;;;;;;5010956;28;20210;-76
2022/06/17 03:31:53;;;;;;;0.32;0.32;;;18.00;99.90;;;;;;4955381;28;20197;-76
2022/06/17 03:41:42;;;;;;;1.27;0.40;;;17.90;99.90;;;;;;4920004;29;20655;-76
2022/06/17 04:09:41;;;;;;;0.57;0.50;;;18.90;99.90;;;;;;4999453;28;20237;-76
2022/06/17 04:46:41;;;;;;;2.75;0.95;;;18.10;99.90;;;;;;5057134;22;20390;-77
2022/06/17 04:49:22;;;;;;;3.03;0.70;;;17.90;99.90;;;;;;5063247;28;20360;-76
2022/06/17 04:51:57;;;;;;;1.92;0.60;;;17.80;99.90;;;;;;5084265;28;20198;-78
2022/06/17 04:54:29;;;;;;;1.63;0.57;;;17.80;99.90;;;;;;5077045;28;20212;-77
2022/06/17 04:57:01;;;;;;;0.75;0.60;;;17.80;99.90;;;;;;5070317;28;20185;-76
2022/06/17 04:59:34;;;;;;;2.05;0.70;;;17.70;99.90;;;;;;5080574;28;20678;-77
2022/06/17 05:02:09;;;;;;;0.68;0.50;;;17.60;99.90;;;;;;5073771;28;20196;-77
2022/06/17 05:04:39;;;;;;;0.98;0.68;;;17.60;99.90;;;;;;5064229;28;20645;-77
2022/06/17 05:07:10;;;;;;;2.22;0.75;;;17.50;99.90;;;;;;5071685;28;20242;-77
2022/06/17 05:09:44;;;;;;;1.85;0.80;;;17.50;99.90;;;;;;5075513;28;20212;-77
2022/06/17 05:12:19;;;;;;;2.45;0.80;;;17.40;99.90;;;;;;5079593;28;20595;-77
2022/06/17 05:14:53;;;;;;;2.83;0.70;;;17.40;99.90;;;;;;5078052;28;20216;-77
2022/06/17 05:17:26;;;;;;;1.20;0.70;;;17.30;99.90;;;;;;5064348;28;20197;-77
2022/06/17 05:19:57;;;;;;;1.05;0.70;;;17.30;99.90;;;;;;5079823;28;20192;-77
2022/06/17 05:22:31;;;;;;;1.52;0.70;;;17.30;99.90;;;;;;5077004;28;20206;-77
2022/06/17 05:25:02;;;;;;;6.78;2.75;;;17.20;99.90;;;;;;5082139;28;20199;-78
2022/06/17 05:27:33;;;;;;;19.45;13.68;;;17.10;99.90;;;;;;5072366;28;20439;-77
2022/06/17 05:30:04;;;;;;;16.58;11.00;;;17.10;99.90;;;;;;5073855;28;20194;-77
2022/06/17 05:32:37;;;;;;;4.22;2.30;;;17.20;99.90;;;;;;5068119;28;20190;-77
2022/06/17 05:35:09;;;;;;;8.45;3.65;;;17.30;99.90;;;;;;5071675;28;20223;-77
2022/06/17 05:37:40;;;;;;;2.78;1.60;;;17.40;99.90;;;;;;5075913;28;20191;-79
2022/06/17 05:40:11;;;;;;;6.97;3.60;;;17.40;99.90;;;;;;5079245;28;20618;-76
2022/06/17 05:42:43;;;;;;;7.28;4.43;;;17.50;99.90;;;;;;5080762;28;20588;-80
2022/06/17 05:45:17;;;;;;;13.07;1.75;;;17.60;99.90;;;;;;5067281;28;20311;-78
2022/06/17 05:47:50;;;;;;;4.18;1.98;;;17.60;99.90;;;;;;5061890;28;20653;-79
2022/06/17 05:50:22;;;;;;;1.70;1.00;;;17.60;99.90;;;;;;5064639;28;20185;-78
2022/06/17 05:52:54;;;;;;;1.60;0.95;;;17.60;99.90;;;;;;5057045;28;20197;-78
2022/06/17 05:55:26;;;;;;;4.20;1.17;;;17.60;99.90;;;;;;5056646;28;20220;-79
2022/06/17 05:57:57;;;;;;;4.30;0.90;;;17.50;99.90;;;;;;5055519;28;20657;-76
2022/06/17 06:00:28;;;;;;;17.90;11.43;;;17.40;99.90;;;;;;5052842;28;20197;-78
2022/06/17 06:03:02;;;;;;;4.88;1.15;;;17.30;99.90;;;;;;5048087;28;20185;-80
2022/06/17 06:05:34;;;;;;;8.85;3.22;;;17.30;99.90;;;;;;5052516;28;20185;-78
2022/06/17 06:08:05;;;;;;;10.05;2.05;;;17.20;99.90;;;;;;5037454;28;20199;-77
2022/06/17 06:10:36;;;;;;;4.72;2.30;;;17.10;99.90;;;;;;5048638;28;20645;-78
2022/06/17 06:13:07;;;;;;;5.55;2.05;;;16.90;99.90;;;;;;5046885;28;20209;-77
2022/06/17 06:15:39;;;;;;;4.25;1.90;;;16.80;99.90;;;;;;5045481;28;20213;-77
2022/06/17 06:18:14;;;;;;;3.13;1.98;;;16.70;99.90;;;;;;5055932;28;20189;-78
2022/06/17 06:20:44;;;;;;;2.80;1.42;;;16.60;99.90;;;;;;5055217;28;20212;-77
2022/06/17 06:23:15;;;;;;;4.43;1.55;;;16.60;99.90;;;;;;5059045;28;20666;-79
2022/06/17 06:25:46;;;;;;;5.97;2.22;;;16.50;99.90;;;;;;5056464;28;20197;-78
2022/06/17 06:28:20;;;;;;;6.90;1.15;;;16.50;99.90;;;;;;5055581;28;20240;-77
2022/06/17 06:30:55;;;;;;;2.78;1.00;;;16.50;99.90;;;;;;5056394;28;20193;-77
2022/06/17 06:33:28;;;;;;;3.28;1.52;;;16.50;99.90;;;;;;5056572;28;20189;-77
2022/06/17 06:35:58;;;;;;;3.03;1.50;;;16.40;99.90;;;;;;5054776;28;20268;-77
2022/06/17 06:38:29;;;;;;;6.88;1.50;;;16.30;99.90;;;;;;5053872;28;20671;-77
2022/06/17 06:41:00;;;;;;;5.40;1.20;;;16.30;99.90;;;;;;5052340;28;20188;-77
2022/06/17 06:43:30;;;;;;;3.05;1.05;;;16.30;99.90;;;;;;5056210;28;20190;-77
2022/06/17 06:46:01;;;;;;;2.13;1.10;;;16.30;99.90;;;;;;5051800;28;20233;-78
2022/06/17 06:48:34;;;;;;;3.75;1.08;;;16.30;99.90;;;;;;5052969;28;20194;-79
2022/06/17 06:51:05;;;;;;;3.50;1.40;;;16.20;99.90;;;;;;5055270;28;20197;-79
2022/06/17 06:53:35;;;;;;;6.82;1.52;;;16.20;99.90;;;;;;5055681;28;20194;-76
2022/06/17 06:56:07;;;;;;;2.92;1.20;;;16.10;99.90;;;;;;5055371;28;20211;-79
2022/06/17 06:58:37;;;;;;;2.85;1.08;;;16.10;99.90;;;;;;5042519;28;20201;-77
2022/06/17 07:01:08;;;;;;;4.60;1.30;;;16.10;99.90;;;;;;5053535;28;20585;-78
2022/06/17 07:03:41;;;;;;;4.50;1.23;;;16.00;99.90;;;;;;5055349;28;20228;-78
2022/06/17 07:06:13;;;;;;;4.30;1.30;;;16.10;99.90;;;;;;5044589;28;20667;-78
2022/06/17 07:08:44;;;;;;;2.78;1.10;;;16.00;99.90;;;;;;5055669;28;20661;-77
2022/06/17 07:11:16;;;;;;;3.10;1.27;;;16.00;99.90;;;;;;5055727;28;20186;-78
2022/06/17 07:13:47;;;;;;;3.80;1.25;;;16.00;99.90;;;;;;5054986;28;20272;-78
2022/06/17 07:16:18;;;;;;;3.20;0.88;;;16.00;99.90;;;;;;5054830;28;20591;-78
2022/06/17 07:18:50;;;;;;;4.15;1.30;;;16.00;99.90;;;;;;5055347;28;20190;-78
2022/06/17 07:21:21;;;;;;;4.55;1.10;;;15.90;99.90;;;;;;5054851;28;20633;-78
2022/06/17 07:23:51;;;;;;;3.38;0.90;;;15.90;99.90;;;;;;5035731;28;20719;-79
2022/06/17 07:26:24;;;;;;;2.88;0.95;;;15.80;99.90;;;;;;5034111;28;20191;-78
2022/06/17 07:28:56;;;;;;;2.58;1.05;;;15.80;99.90;;;;;;5052052;28;20190;-78
2022/06/17 07:31:28;;;;;;;1.63;0.80;;;15.80;99.90;;;;;;5055249;28;20308;-77
2022/06/17 07:34:00;;;;;;;2.25;0.90;;;15.80;99.90;;;;;;5055110;28;20189;-78
2022/06/17 07:42:07;;;;;;;2.20;1.20;;;15.70;99.90;;;;;;5055155;28;20294;-78
2022/06/17 07:44:38;;;;;;;2.20;0.98;;;15.70;99.90;;;;;;5054042;28;20193;-78
2022/06/17 07:47:09;;;;;;;1.60;0.82;;;15.70;99.90;;;;;;5053309;28;20225;-77
2022/06/17 07:49:41;;;;;;;1.10;0.80;;;15.70;99.90;;;;;;5055087;28;20198;-78
2022/06/17 07:52:12;;;;;;;2.75;0.90;;;15.70;99.90;;;;;;5047439;28;20193;-78
2022/06/17 07:54:43;;;;;;;2.35;0.90;;;15.60;99.90;;;;;;5054789;28;20684;-78
2022/06/17 07:57:16;;;;;;;2.03;1.08;;;15.70;99.90;;;;;;5054606;28;20189;-78
2022/06/17 07:59:46;;;;;;;2.33;1.05;;;15.70;99.90;;;;;;5054954;28;20204;-78
2022/06/17 08:02:17;;;;;;;22.05;14.93;;;15.70;99.90;;;;;;5054989;28;20192;-78
2022/06/17 08:04:50;;;;;;;10.75;7.07;;;15.70;99.90;;;;;;5054796;28;20194;-78
2022/06/17 08:07:21;;;;;;;1.90;1.55;;;15.70;99.90;;;;;;5054417;28;20194;-77
2022/06/17 08:09:51;;;;;;;9.68;5.05;;;15.70;99.90;;;;;;5054808;28;20574;-79
2022/06/17 08:12:22;;;;;;;5.80;4.13;;;15.70;99.90;;;;;;5054739;28;20553;-78
2022/06/17 08:14:54;;;;;;;3.35;2.00;;;15.60;99.90;;;;;;5054663;28;20217;-78
2022/06/17 08:17:25;;;;;;;2.28;1.50;;;15.60;99.90;;;;;;5053777;28;20193;-78
2022/06/17 08:19:58;;;;;;;2.88;2.03;;;15.60;99.90;;;;;;5050447;28;20236;-78
2022/06/17 08:22:29;;;;;;;3.72;2.22;;;15.60;99.90;;;;;;5054130;28;20205;-78
2022/06/17 08:24:59;;;;;;;3.70;1.80;;;15.70;99.90;;;;;;5053624;28;20185;-78
2022/06/17 08:27:30;;;;;;;2.17;1.10;;;15.70;99.90;;;;;;5053892;28;20204;-78
2022/06/17 08:30:01;;;;;;;1.83;1.40;;;15.70;99.90;;;;;;5053835;28;20186;-78
2022/06/17 08:32:53;;;;;;;2.40;1.40;;;15.70;99.90;;;;;;5053743;28;20189;-78
2022/06/17 08:35:29;;;;;;;1.88;1.48;;;15.70;99.90;;;;;;5053475;28;20668;-78
2022/06/17 08:38:03;;;;;;;2.00;1.38;;;15.70;99.90;;;;;;5053101;28;20193;-78
2022/06/17 08:40:48;;;;;;;3.55;1.73;;;15.70;99.90;;;;;;5053350;28;20182;-78
2022/06/17 08:43:50;;;;;;;2.67;1.30;;;15.70;99.90;;;;;;5054186;28;20236;-78
2022/06/17 08:46:34;;;;;;;3.15;1.80;;;15.70;99.90;;;;;;5034963;28;20239;-78
2022/06/17 08:49:19;;;;;;;2.08;1.70;;;15.70;99.90;;;;;;5033816;28;20197;-78
2022/06/17 08:52:12;;;;;;;3.13;2.10;;;15.60;99.90;;;;;;5046094;28;20225;-77
2022/06/17 08:54:54;;;;;;;5.07;2.38;;;15.60;99.90;;;;;;5036939;28;20209;-78
2022/06/17 08:57:30;;;;;;;4.40;2.58;;;15.50;99.90;;;;;;5053379;28;20576;-78
2022/06/17 09:00:11;;;;;;;5.57;2.83;;;15.50;99.90;;;;;;5050524;28;20197;-77
2022/06/17 09:02:57;;;;;;;6.93;2.65;;;15.50;99.90;;;;;;5053107;28;20185;-78
2022/06/17 09:05:38;;;;;;;4.82;3.03;;;15.40;99.90;;;;;;5048248;28;20190;-78
2022/06/17 09:08:26;;;;;;;5.75;3.17;;;15.40;99.90;;;;;;5046691;28;20252;-78
2022/06/17 09:11:06;;;;;;;6.25;3.47;;;15.40;99.90;;;;;;5053436;28;20251;-78
2022/06/17 09:13:43;;;;;;;5.60;3.10;;;15.40;99.90;;;;;;5052963;28;20205;-77
2022/06/17 09:16:27;;;;;;;6.43;3.30;;;15.40;99.90;;;;;;5033274;28;20236;-77
2022/06/17 09:19:02;;;;;;;7.00;4.18;;;15.30;99.90;;;;;;5037643;28;20185;-77
2022/06/17 09:21:38;;;;;;;8.40;3.88;;;15.30;99.90;;;;;;5045683;28;20236;-77
2022/06/17 09:24:15;;;;;;;5.97;3.75;;;15.30;99.90;;;;;;5045017;28;20201;-77
2022/06/17 09:26:50;;;;;;;8.73;3.95;;;15.30;99.90;;;;;;5052869;28;20200;-77
2022/06/17 09:29:27;;;;;;;6.38;4.10;;;15.20;99.90;;;;;;5052951;28;20254;-77
2022/06/17 09:32:04;;;;;;;6.00;3.42;;;15.20;99.90;;;;;;5052792;28;20193;-78
2022/06/17 09:34:44;;;;;;;6.68;3.20;;;15.20;99.90;;;;;;5052017;28;20189;-78
2022/06/17 09:37:21;;;;;;;4.88;3.25;;;15.20;99.90;;;;;;5045483;28;20196;-78
2022/06/17 09:39:59;;;;;;;4.82;3.22;;;15.10;99.90;;;;;;5053075;28;20200;-78
2022/06/17 09:42:35;;;;;;;5.18;2.67;;;15.10;99.90;;;;;;5052998;28;20197;-78
2022/06/17 09:45:11;;;;;;;6.22;2.42;;;15.10;99.90;;;;;;5040036;28;20220;-78
2022/06/17 09:47:44;;;;;;;4.15;2.30;;;15.10;99.90;;;;;;5042009;28;20193;-78
2022/06/17 09:50:19;;;;;;;3.72;2.25;;;15.10;99.90;;;;;;5042688;28;20192;-78
2022/06/17 09:52:54;;;;;;;5.78;2.15;;;15.10;99.90;;;;;;5059584;28;20542;-78
2022/06/17 09:55:31;;;;;;;4.78;2.10;;;15.00;99.90;;;;;;5062123;28;20722;-78
2022/06/17 09:58:06;;;;;;;3.85;1.92;;;15.00;99.90;;;;;;5061494;28;20180;-78
2022/06/17 10:00:44;;;;;;;2.67;1.98;;;15.00;99.90;;;;;;5053472;28;20647;-78
2022/06/17 10:03:24;;;;;;;4.15;1.50;;;15.00;99.90;;;;;;5064082;28;20190;-78
2022/06/17 10:06:01;;;;;;;2.90;1.42;;;15.00;99.90;;;;;;5058659;28;20190;-78
2022/06/17 10:08:44;;;;;;;2.55;1.60;;;14.90;99.90;;;;;;5061746;28;20196;-77
2022/06/17 10:11:20;;;;;;;3.65;1.40;;;14.90;99.90;;;;;;5059506;28;20193;-77
2022/06/17 10:14:01;;;;;;;3.30;1.40;;;14.90;99.90;;;;;;5064751;28;20191;-78
2022/06/17 10:19:40;;;;;;;4.15;1.48;;;14.80;99.90;;;;;;5041414;28;20201;-78
2022/06/17 10:22:23;;;;;;;1.85;1.20;;;14.80;99.90;;;;;;5051565;28;20193;-78
2022/06/17 10:25:07;;;;;;;1.42;1.10;;;14.80;99.90;;;;;;5059067;28;20181;-78
2022/06/17 10:27:53;;;;;;;4.28;1.60;;;14.70;99.90;;;;;;5059226;28;20594;-78
2022/06/17 10:30:36;;;;;;;2.35;1.45;;;14.70;99.90;;;;;;5058892;28;20272;-79
2022/06/17 10:33:08;;;;;;;4.28;1.33;;;14.70;99.90;;;;;;5051097;28;20641;-78
2022/06/17 10:35:41;;;;;;;2.53;1.42;;;14.70;99.90;;;;;;5060541;28;20225;-78
2022/06/17 10:38:17;;;;;;;3.13;1.40;;;14.60;99.90;;;;;;5058174;28;20193;-78
2022/06/17 10:40:47;;;;;;;2.92;1.40;;;14.60;99.90;;;;;;5066324;28;20195;-77
2022/06/17 10:43:23;;;;;;;2.42;1.40;;;14.60;99.90;;;;;;5066151;28;20193;-78
2022/06/17 10:45:53;;;;;;;2.13;1.20;;;14.60;99.90;;;;;;5067415;28;20243;-79
2022/06/17 10:48:43;;;;;;;2.53;1.30;;;14.60;99.90;;;;;;5063116;28;20189;-79
2022/06/17 10:51:14;;;;;;;2.75;1.20;;;14.60;99.90;;;;;;5061652;28;20219;-81
2022/06/17 10:53:48;;;;;;;1.25;1.05;;;14.50;99.90;;;;;;5056255;28;20190;-78
2022/06/17 10:56:28;;;;;;;4.15;1.20;;;14.50;99.90;;;;;;5061299;28;20220;-77
2022/06/17 10:59:03;;;;;;;2.38;0.98;;;14.40;99.90;;;;;;5065699;28;20649;-78
2022/06/17 11:01:56;;;;;;;3.78;1.20;;;14.40;99.90;;;;;;5058760;28;20192;-78
2022/06/17 11:04:29;;;;;;;1.60;1.13;;;14.40;99.90;;;;;;5057310;28;20203;-78
2022/06/17 11:07:03;;;;;;;2.67;1.40;;;14.30;99.90;;;;;;5047457;28;20193;-78
2022/06/17 11:09:40;;;;;;;3.05;1.63;;;14.20;99.90;;;;;;5075993;28;20189;-79
2022/06/17 11:12:21;;;;;;;2.55;1.45;;;14.20;99.90;;;;;;5061102;28;20198;-77
2022/06/17 11:15:03;;;;;;;2.38;1.77;;;14.10;99.90;;;;;;5056096;28;20195;-78
2022/06/17 11:17:41;;;;;;;2.28;1.70;;;14.10;99.90;;;;;;5058154;28;20193;-77
2022/06/17 11:20:25;;;;;;;2.03;1.48;;;14.10;99.90;;;;;;5053671;28;20193;-78
2022/06/17 11:22:57;;;;;;;2.42;1.30;;;14.00;99.90;;;;;;5054532;28;20186;-77
2022/06/17 11:25:35;;;;;;;3.08;1.55;;;13.90;99.90;;;;;;5061845;28;20195;-78
2022/06/17 11:28:14;;;;;;;2.33;1.42;;;13.90;99.90;;;;;;5047633;28;20192;-77
2022/06/17 11:30:56;;;;;;;2.30;1.33;;;13.90;99.90;;;;;;5054677;28;20267;-77
2022/06/17 11:33:29;;;;;;;2.55;1.42;;;13.80;99.90;;;;;;5056370;28;20201;-78
2022/06/17 11:36:06;;;;;;;3.38;1.50;;;13.80;99.90;;;;;;5053921;28;20560;-77
2022/06/17 11:38:38;;;;;;;2.80;1.42;;;13.80;99.90;;;;;;5060563;28;20189;-77
2022/06/17 11:41:09;;;;;;;3.08;1.48;;;13.70;99.90;;;;;;5067856;28;20189;-77
2022/06/17 11:43:42;;;;;;;3.40;1.65;;;13.70;99.90;;;;;;5053406;28;20192;-77
2022/06/17 11:46:20;;;;;;;2.75;1.35;;;13.70;99.90;;;;;;5061128;28;20268;-77
2022/06/17 11:48:54;;;;;;;4.35;1.77;;;13.70;99.90;;;;;;5050570;28;20600;-77
2022/06/17 11:51:31;;;;;;;3.03;1.60;;;13.70;99.90;;;;;;5058661;28;20616;-77
2022/06/17 11:54:06;;;;;;;2.70;1.40;;;13.60;99.90;;;;;;5050194;28;20255;-77
2022/06/17 11:56:40;;;;;;;2.55;1.60;;;13.70;99.90;;;;;;5063046;28;20694;-77
2022/06/17 11:59:14;;;;;;;2.03;1.52;;;13.60;99.90;;;;;;5057662;28;20194;-77
2022/06/17 12:02:03;;;;;;;3.03;1.80;;;13.50;99.90;;;;;;5058355;28;20221;-77
2022/06/17 12:04:42;;;;;;;2.63;1.80;;;13.50;99.90;;;;;;5059672;28;20190;-77
2022/06/17 12:07:41;;;;;;;2.85;1.98;;;13.40;99.90;;;;;;5056955;28;20185;-77
2022/06/17 12:10:46;;;;;;;4.43;1.88;;;13.40;99.90;;;;;;5051707;28;20192;-77
2022/06/17 12:13:25;;;;;;;3.10;1.60;;;13.30;99.90;;;;;;5036802;28;20193;-77
2022/06/17 12:15:59;;;;;;;3.22;1.70;;;13.30;99.90;;;;;;5056328;28;20333;-78
2022/06/17 12:18:36;;;;;;;4.15;1.77;;;13.20;99.90;;;;;;5064404;28;20185;-77
2022/06/17 12:21:15;;;;;;;3.92;1.80;;;13.20;99.90;;;;;;5057771;28;20234;-77
2022/06/17 12:23:50;;;;;;;2.65;1.73;;;13.20;99.90;;;;;;5057811;28;20196;-77
2022/06/17 12:26:25;;;;;;;2.95;2.10;;;13.20;99.90;;;;;;5041758;28;20192;-77
2022/06/17 12:29:04;;;;;;;3.28;1.75;;;13.20;99.90;;;;;;5061341;28;20189;-77
2022/06/17 12:31:48;;;;;;;3.35;1.67;;;13.20;99.90;;;;;;5053152;28;20185;-77
2022/06/17 12:34:29;;;;;;;2.45;1.48;;;13.20;99.90;;;;;;5052425;28;20209;-78
2022/06/17 12:37:03;;;;;;;2.25;1.58;;;13.20;99.90;;;;;;5056561;28;20218;-78
2022/06/17 12:39:43;;;;;;;3.90;1.80;;;13.20;99.90;;;;;;5057246;28;20189;-77
2022/06/17 12:42:28;;;;;;;3.92;2.03;;;13.20;99.90;;;;;;5057840;28;20188;-77
2022/06/17 12:45:10;;;;;;;2.00;1.60;;;13.20;99.90;;;;;;5058567;28;20212;-77
2022/06/17 12:48:00;;;;;;;3.20;1.60;;;13.20;99.90;;;;;;5028529;28;20190;-77
2022/06/17 12:53:36;;;;;;;2.75;1.55;;;13.10;99.90;;;;;;5029424;28;20297;-77
2022/06/17 12:56:22;;;;;;;2.75;1.60;;;13.10;99.90;;;;;;5044491;28;20228;-77
2022/06/17 12:59:22;;;;;;;3.58;1.60;;;13.10;99.90;;;;;;5042104;28;20187;-77
2022/06/17 13:02:00;;;;;;;3.53;1.73;;;13.00;99.90;;;;;;5036940;28;20221;-77
2022/06/17 13:04:54;;;;;;;3.70;1.70;;;13.00;99.90;;;;;;5045788;28;20555;-77
2022/06/17 13:07:33;;;;;;;3.22;1.50;;;13.00;99.90;;;;;;5031565;28;20204;-77
2022/06/17 13:13:10;;;;;;;2.75;1.67;;;12.90;99.90;;;;;;5041330;28;20279;-77
2022/06/17 13:15:47;;;;;;;4.32;2.00;;;12.90;99.90;;;;;;5040855;28;20197;-77
2022/06/17 13:18:23;;;;;;;4.70;1.80;;;12.90;99.90;;;;;;5048975;28;20633;-77
2022/06/17 13:21:00;;;;;;;2.72;1.80;;;12.90;99.90;;;;;;5037477;28;20197;-77
2022/06/17 13:23:40;;;;;;;4.32;1.90;;;12.80;99.90;;;;;;5040374;28;20217;-77
2022/06/17 13:26:15;;;;;;;2.88;1.73;;;12.80;99.90;;;;;;5041887;28;20194;-77
2022/06/17 13:28:58;;;;;;;3.50;2.00;;;12.70;99.90;;;;;;5041834;28;20189;-77
2022/06/17 13:31:35;;;;;;;3.45;1.90;;;12.70;99.90;;;;;;5036323;28;20186;-77
2022/06/17 13:34:09;;;;;;;4.07;1.90;;;12.60;99.90;;;;;;5037614;28;20551;-77
2022/06/17 13:36:46;;;;;;;2.83;1.80;;;12.60;99.90;;;;;;5038005;28;20213;-77
2022/06/17 13:39:23;;;;;;;2.95;1.85;;;12.60;99.90;;;;;;5042458;28;20556;-77
2022/06/17 13:41:59;;;;;;;2.45;1.90;;;12.50;99.90;;;;;;5041894;28;20197;-77
2022/06/17 13:44:40;;;;;;;4.03;1.95;;;12.50;99.90;;;;;;5047202;28;20315;-77
2022/06/17 13:47:23;;;;;;;2.92;2.05;;;12.40;99.90;;;;;;5059397;28;20224;-77
2022/06/17 13:49:59;;;;;;;3.53;2.00;;;12.40;99.90;;;;;;5053067;28;20201;-77
2022/06/17 13:52:36;;;;;;;3.13;2.17;;;12.30;99.90;;;;;;5064357;28;20188;-77
2022/06/17 13:55:26;;;;;;;2.40;1.75;;;12.30;99.90;;;;;;5050397;28;20197;-77
2022/06/17 13:58:03;;;;;;;3.97;2.42;;;12.30;99.90;;;;;;5053481;28;20217;-77
2022/06/17 14:00:39;;;;;;;6.43;2.38;;;12.30;99.90;;;;;;5042074;28;20217;-77
2022/06/17 14:03:11;;;;;;;3.90;1.98;;;12.20;99.90;;;;;;5054722;28;20231;-77
2022/06/17 14:05:44;;;;;;;4.97;2.22;;;12.20;99.90;;;;;;5054458;28;20547;-77
2022/06/17 14:08:17;;;;;;;4.45;2.17;;;12.10;99.90;;;;;;5046744;28;20579;-78
2022/06/17 14:14:29;;;;;;;2.55;1.70;;;12.10;99.90;;;;;;5053402;28;20195;-77
2022/06/17 14:17:05;;;;;;;3.17;2.00;;;12.10;99.90;;;;;;5051032;28;20252;-77
2022/06/17 14:19:44;;;;;;;4.28;1.83;;;12.10;99.90;;;;;;5051086;28;20213;-77
2022/06/17 14:22:21;;;;;;;3.58;2.00;;;12.00;99.90;;;;;;5048908;28;20191;-77
2022/06/17 14:25:27;;;;;;;3.15;1.98;;;12.00;99.90;;;;;;5050774;28;20681;-78
2022/06/17 14:28:04;;;;;;;5.50;2.28;;;12.00;99.90;;;;;;5049568;28;20202;-79
2022/06/17 14:30:50;;;;;;;3.17;1.88;;;12.00;99.90;;;;;;5049591;28;20614;-79
2022/06/17 14:33:37;;;;;;;3.45;1.88;;;12.00;99.90;;;;;;5050629;28;20569;-78
2022/06/17 14:36:39;;;;;;;3.17;1.80;;;11.90;99.90;;;;;;5053890;28;20660;-79
2022/06/17 14:39:14;;;;;;;2.97;1.85;;;11.90;99.90;;;;;;5055237;28;20193;-79
2022/06/17 14:42:05;;;;;;;3.38;1.50;;;11.90;99.90;;;;;;5061990;28;20188;-79
2022/06/17 14:44:39;;;;;;;3.22;1.52;;;11.90;99.90;;;;;;5051771;28;20181;-79
2022/06/17 14:47:40;;;;;;;4.40;2.10;;;11.90;99.90;;;;;;5054924;28;20702;-79
2022/06/17 14:50:25;;;;;;;3.40;1.75;;;11.90;99.90;;;;;;5049825;28;20664;-79
2022/06/17 14:53:42;;;;;;;4.63;1.75;;;11.90;99.90;;;;;;5055041;28;20212;-79
2022/06/17 14:56:38;;;;;;;4.50;1.70;;;11.90;99.90;;;;;;5051955;28;20194;-79
2022/06/17 14:59:31;;;;;;;3.47;1.58;;;11.80;99.90;;;;;;5061126;28;20193;-79
2022/06/17 15:02:19;;;;;;;2.63;1.58;;;11.80;99.90;;;;;;5067557;28;20198;-79
2022/06/17 15:04:53;;;;;;;4.72;1.90;;;11.80;99.90;;;;;;5054179;28;20277;-79
2022/06/17 15:07:28;;;;;;;4.63;1.80;;;11.80;99.90;;;;;;5053460;28;20235;-78
2022/06/17 15:10:02;;;;;;;3.30;1.50;;;11.80;99.90;;;;;;5075715;28;20279;-79
2022/06/17 15:12:35;;;;;;;3.83;1.58;;;11.80;99.90;;;;;;5043506;28;20191;-78
2022/06/17 15:15:10;;;;;;;5.85;2.00;;;11.80;99.90;;;;;;5037026;28;20190;-79
2022/06/17 15:17:46;;;;;;;4.32;1.98;;;11.80;99.90;;;;;;5035794;28;20222;-79
2022/06/17 15:20:20;;;;;;;3.85;1.77;;;11.70;99.90;;;;;;5053777;28;20196;-78
2022/06/17 15:23:05;;;;;;;3.22;1.80;;;11.80;99.90;;;;;;5055328;28;20232;-79
2022/06/17 15:25:45;;;;;;;5.97;2.03;;;11.70;99.90;;;;;;5055195;28;20185;-79
2022/06/17 15:28:26;;;;;;;4.07;1.80;;;11.70;99.90;;;;;;5046463;28;20200;-78
2022/06/17 15:30:56;;;;;;;3.88;1.85;;;11.70;99.90;;;;;;5055119;28;20232;-79